sensor_id;sensor_type;location;lat;lon;timestamp;P1;durP1;ratioP1;P2;durP2;ratioP2
35257;SDS011;21385;50.878;8.050;2022-09-28T00:01:49;4.13;;;1.00;;
35257;SDS011;21385;50.878;8.050;2022-09-28T00:04:15;3.17;;;0.90;;
35257;SDS011;21385;50.878;8.050;2022-09-28T00:06:41;1.10;;;0.93;;
35257;SDS011;21385;50.878;8.050;2022-09-28T00:09:07;2.80;;;1.05;;
35257;SDS011;21385;50.878;8.050;2022-09-28T00:11:33;2.55;;;1.20;;
35257;SDS011;21385;50.878;8.050;2022-09-28T00:13:59;4.70;;;0.98;;
35257;SDS011;21385;50.878;8.050;2022-09-28T00:16:29;2.38;;;1.20;;
35257;SDS011;21385;50.878;8.050;2022-09-28T00:18:56;1.17;;;0.90;;
35257;SDS011;21385;50.878;8.050;2022-09-28T00:21:23;5.45;;;1.58;;
35257;SDS011;21385;50.878;8.050;2022-09-28T00:23:55;1.83;;;1.10;;
35257;SDS011;21385;50.878;8.050;2022-09-28T00:26:40;0.73;;;0.70;;
35257;SDS011;21385;50.878;8.050;2022-09-28T00:29:07;1.85;;;0.70;;
35257;SDS011;21385;50.878;8.050;2022-09-28T00:31:41;1.30;;;1.13;;
35257;SDS011;21385;50.878;8.050;2022-09-28T00:34:07;3.53;;;1.05;;
35257;SDS011;21385;50.878;8.050;2022-09-28T00:36:32;2.10;;;0.90;;
35257;SDS011;21385;50.878;8.050;2022-09-28T00:39:02;0.80;;;0.65;;
35257;SDS011;21385;50.878;8.050;2022-09-28T00:41:32;9.43;;;1.35;;
35257;SDS011;21385;50.878;8.050;2022-09-28T00:46:53;7.07;;;1.40;;
35257;SDS011;21385;50.878;8.050;2022-09-28T00:49:32;1.20;;;0.98;;
35257;SDS011;21385;50.878;8.050;2022-09-28T00:52:02;3.40;;;1.30;;
35257;SDS011;21385;50.878;8.050;2022-09-28T00:54:31;4.95;;;0.90;;
35257;SDS011;21385;50.878;8.050;2022-09-28T00:56:57;0.70;;;0.63;;
35257;SDS011;21385;50.878;8.050;2022-09-28T00:59:24;0.85;;;0.63;;
35257;SDS011;21385;50.878;8.050;2022-09-28T01:01:50;2.60;;;0.90;;
35257;SDS011;21385;50.878;8.050;2022-09-28T01:04:16;1.60;;;0.63;;
35257;SDS011;21385;50.878;8.050;2022-09-28T01:06:42;0.75;;;0.60;;
35257;SDS011;21385;50.878;8.050;2022-09-28T01:09:09;0.80;;;0.80;;
35257;SDS011;21385;50.878;8.050;2022-09-28T01:11:37;0.73;;;0.70;;
35257;SDS011;21385;50.878;8.050;2022-09-28T01:14:04;1.77;;;1.00;;
35257;SDS011;21385;50.878;8.050;2022-09-28T01:25:06;2.60;;;0.90;;
35257;SDS011;21385;50.878;8.050;2022-09-28T01:27:51;0.75;;;0.73;;
35257;SDS011;21385;50.878;8.050;2022-09-28T01:30:21;4.38;;;1.15;;
35257;SDS011;21385;50.878;8.050;2022-09-28T01:33:06;1.83;;;0.70;;
35257;SDS011;21385;50.878;8.050;2022-09-28T01:35:44;4.53;;;0.95;;
35257;SDS011;21385;50.878;8.050;2022-09-28T01:38:32;6.97;;;1.25;;
35257;SDS011;21385;50.878;8.050;2022-09-28T01:41:05;1.95;;;0.75;;
35257;SDS011;21385;50.878;8.050;2022-09-28T01:43:33;2.63;;;0.63;;
35257;SDS011;21385;50.878;8.050;2022-09-28T01:46:13;1.33;;;0.60;;
35257;SDS011;21385;50.878;8.050;2022-09-28T01:48:53;1.50;;;0.75;;
35257;SDS011;21385;50.878;8.050;2022-09-28T01:54:13;1.92;;;0.90;;
35257;SDS011;21385;50.878;8.050;2022-09-28T01:56:47;8.57;;;1.13;;
35257;SDS011;21385;50.878;8.050;2022-09-28T01:59:21;2.70;;;0.90;;
35257;SDS011;21385;50.878;8.050;2022-09-28T02:02:09;0.82;;;0.70;;
35257;SDS011;21385;50.878;8.050;2022-09-28T02:04:45;1.48;;;1.02;;
35257;SDS011;21385;50.878;8.050;2022-09-28T02:07:21;1.55;;;1.05;;
35257;SDS011;21385;50.878;8.050;2022-09-28T02:09:54;5.38;;;1.52;;
35257;SDS011;21385;50.878;8.050;2022-09-28T02:12:26;2.38;;;1.52;;
35257;SDS011;21385;50.878;8.050;2022-09-28T02:15:25;2.47;;;1.33;;
35257;SDS011;21385;50.878;8.050;2022-09-28T02:17:53;0.70;;;0.70;;
35257;SDS011;21385;50.878;8.050;2022-09-28T02:20:19;0.80;;;0.80;;
35257;SDS011;21385;50.878;8.050;2022-09-28T02:22:46;0.82;;;0.77;;
35257;SDS011;21385;50.878;8.050;2022-09-28T02:25:35;0.80;;;0.77;;
35257;SDS011;21385;50.878;8.050;2022-09-28T02:28:05;0.82;;;0.80;;
35257;SDS011;21385;50.878;8.050;2022-09-28T02:30:34;1.60;;;0.80;;
35257;SDS011;21385;50.878;8.050;2022-09-28T02:33:20;2.65;;;1.00;;
35257;SDS011;21385;50.878;8.050;2022-09-28T02:35:50;0.70;;;0.70;;
35257;SDS011;21385;50.878;8.050;2022-09-28T02:38:16;1.98;;;1.10;;
35257;SDS011;21385;50.878;8.050;2022-09-28T02:40:43;2.13;;;0.73;;
35257;SDS011;21385;50.878;8.050;2022-09-28T02:43:29;1.40;;;0.90;;
35257;SDS011;21385;50.878;8.050;2022-09-28T02:54:13;1.85;;;1.10;;
35257;SDS011;21385;50.878;8.050;2022-09-28T02:59:46;1.10;;;1.00;;
35257;SDS011;21385;50.878;8.050;2022-09-28T03:05:18;1.67;;;1.10;;
35257;SDS011;21385;50.878;8.050;2022-09-28T03:13:18;1.73;;;1.40;;
35257;SDS011;21385;50.878;8.050;2022-09-28T03:15:44;2.30;;;1.38;;
35257;SDS011;21385;50.878;8.050;2022-09-28T03:18:09;1.55;;;1.38;;
35257;SDS011;21385;50.878;8.050;2022-09-28T03:20:35;2.55;;;1.45;;
35257;SDS011;21385;50.878;8.050;2022-09-28T03:23:01;1.50;;;1.40;;
35257;SDS011;21385;50.878;8.050;2022-09-28T03:25:27;2.50;;;1.35;;
35257;SDS011;21385;50.878;8.050;2022-09-28T03:27:52;2.65;;;2.45;;
35257;SDS011;21385;50.878;8.050;2022-09-28T03:30:18;2.30;;;1.83;;
35257;SDS011;21385;50.878;8.050;2022-09-28T03:32:43;2.72;;;1.90;;
35257;SDS011;21385;50.878;8.050;2022-09-28T03:35:09;2.90;;;2.58;;
35257;SDS011;21385;50.878;8.050;2022-09-28T03:37:35;5.55;;;2.25;;
35257;SDS011;21385;50.878;8.050;2022-09-28T03:40:01;4.45;;;2.85;;
35257;SDS011;21385;50.878;8.050;2022-09-28T03:42:27;3.50;;;2.65;;
35257;SDS011;21385;50.878;8.050;2022-09-28T03:44:53;4.43;;;2.30;;
35257;SDS011;21385;50.878;8.050;2022-09-28T03:47:18;3.53;;;2.35;;
35257;SDS011;21385;50.878;8.050;2022-09-28T03:49:45;4.10;;;2.20;;
35257;SDS011;21385;50.878;8.050;2022-09-28T03:52:11;2.28;;;2.08;;
35257;SDS011;21385;50.878;8.050;2022-09-28T03:54:37;5.35;;;2.35;;
35257;SDS011;21385;50.878;8.050;2022-09-28T03:57:03;7.20;;;2.50;;
35257;SDS011;21385;50.878;8.050;2022-09-28T03:59:29;3.47;;;2.42;;
35257;SDS011;21385;50.878;8.050;2022-09-28T04:01:55;4.70;;;3.00;;
35257;SDS011;21385;50.878;8.050;2022-09-28T04:04:21;3.47;;;2.70;;
35257;SDS011;21385;50.878;8.050;2022-09-28T04:06:46;4.18;;;2.60;;
35257;SDS011;21385;50.878;8.050;2022-09-28T04:09:12;4.30;;;3.05;;
35257;SDS011;21385;50.878;8.050;2022-09-28T04:11:38;3.97;;;2.60;;
35257;SDS011;21385;50.878;8.050;2022-09-28T04:14:04;3.50;;;2.70;;
35257;SDS011;21385;50.878;8.050;2022-09-28T04:16:32;2.92;;;2.40;;
35257;SDS011;21385;50.878;8.050;2022-09-28T04:18:57;8.95;;;1.85;;
35257;SDS011;21385;50.878;8.050;2022-09-28T04:21:23;2.65;;;2.35;;
35257;SDS011;21385;50.878;8.050;2022-09-28T04:23:49;2.45;;;2.22;;
35257;SDS011;21385;50.878;8.050;2022-09-28T04:26:19;5.88;;;2.72;;
35257;SDS011;21385;50.878;8.050;2022-09-28T04:28:46;3.75;;;2.63;;
35257;SDS011;21385;50.878;8.050;2022-09-28T04:31:35;4.63;;;2.70;;
35257;SDS011;21385;50.878;8.050;2022-09-28T04:34:03;2.88;;;2.63;;
35257;SDS011;21385;50.878;8.050;2022-09-28T04:36:29;2.53;;;2.33;;
35257;SDS011;21385;50.878;8.050;2022-09-28T04:38:54;2.67;;;2.45;;
35257;SDS011;21385;50.878;8.050;2022-09-28T04:41:20;3.67;;;2.90;;
35257;SDS011;21385;50.878;8.050;2022-09-28T04:43:46;2.85;;;2.45;;
35257;SDS011;21385;50.878;8.050;2022-09-28T04:46:12;2.35;;;2.15;;
35257;SDS011;21385;50.878;8.050;2022-09-28T04:48:38;2.95;;;2.75;;
35257;SDS011;21385;50.878;8.050;2022-09-28T04:51:04;2.95;;;2.67;;
35257;SDS011;21385;50.878;8.050;2022-09-28T04:53:29;2.88;;;2.63;;
35257;SDS011;21385;50.878;8.050;2022-09-28T04:56:00;4.25;;;2.50;;
35257;SDS011;21385;50.878;8.050;2022-09-28T04:58:27;5.82;;;3.00;;
35257;SDS011;21385;50.878;8.050;2022-09-28T05:00:57;2.70;;;2.50;;
35257;SDS011;21385;50.878;8.050;2022-09-28T05:03:25;4.30;;;3.17;;
35257;SDS011;21385;50.878;8.050;2022-09-28T05:05:51;3.35;;;3.08;;
35257;SDS011;21385;50.878;8.050;2022-09-28T05:08:17;6.50;;;3.42;;
35257;SDS011;21385;50.878;8.050;2022-09-28T05:10:43;7.40;;;3.70;;
35257;SDS011;21385;50.878;8.050;2022-09-28T05:13:10;3.28;;;2.97;;
35257;SDS011;21385;50.878;8.050;2022-09-28T05:15:37;4.25;;;3.72;;
35257;SDS011;21385;50.878;8.050;2022-09-28T05:18:04;4.10;;;3.22;;
35257;SDS011;21385;50.878;8.050;2022-09-28T05:20:31;9.50;;;3.92;;
35257;SDS011;21385;50.878;8.050;2022-09-28T05:22:57;11.88;;;4.65;;
35257;SDS011;21385;50.878;8.050;2022-09-28T05:25:22;6.03;;;4.18;;
35257;SDS011;21385;50.878;8.050;2022-09-28T05:27:55;3.40;;;3.17;;
35257;SDS011;21385;50.878;8.050;2022-09-28T05:30:21;3.97;;;3.05;;
35257;SDS011;21385;50.878;8.050;2022-09-28T05:32:47;4.43;;;4.03;;
35257;SDS011;21385;50.878;8.050;2022-09-28T05:35:16;4.22;;;3.83;;
35257;SDS011;21385;50.878;8.050;2022-09-28T05:37:42;6.47;;;4.13;;
35257;SDS011;21385;50.878;8.050;2022-09-28T05:40:08;4.30;;;3.85;;
35257;SDS011;21385;50.878;8.050;2022-09-28T05:42:34;9.27;;;4.13;;
35257;SDS011;21385;50.878;8.050;2022-09-28T05:44:59;10.65;;;4.82;;
35257;SDS011;21385;50.878;8.050;2022-09-28T05:47:27;5.18;;;4.10;;
35257;SDS011;21385;50.878;8.050;2022-09-28T05:49:53;15.77;;;4.78;;
35257;SDS011;21385;50.878;8.050;2022-09-28T05:52:19;4.55;;;4.15;;
35257;SDS011;21385;50.878;8.050;2022-09-28T05:54:45;7.63;;;3.20;;
35257;SDS011;21385;50.878;8.050;2022-09-28T05:57:11;5.20;;;3.60;;
35257;SDS011;21385;50.878;8.050;2022-09-28T05:59:37;5.53;;;3.78;;
35257;SDS011;21385;50.878;8.050;2022-09-28T06:02:03;6.05;;;3.78;;
35257;SDS011;21385;50.878;8.050;2022-09-28T06:04:29;4.28;;;3.78;;
35257;SDS011;21385;50.878;8.050;2022-09-28T06:06:55;3.78;;;3.00;;
35257;SDS011;21385;50.878;8.050;2022-09-28T06:09:20;6.47;;;3.78;;
35257;SDS011;21385;50.878;8.050;2022-09-28T06:11:48;8.55;;;3.50;;
35257;SDS011;21385;50.878;8.050;2022-09-28T06:14:14;11.40;;;3.33;;
35257;SDS011;21385;50.878;8.050;2022-09-28T06:16:39;3.30;;;3.00;;
35257;SDS011;21385;50.878;8.050;2022-09-28T06:19:05;3.75;;;3.40;;
35257;SDS011;21385;50.878;8.050;2022-09-28T06:21:33;3.25;;;2.60;;
35257;SDS011;21385;50.878;8.050;2022-09-28T06:24:00;3.95;;;3.08;;
35257;SDS011;21385;50.878;8.050;2022-09-28T06:26:25;3.17;;;2.88;;
35257;SDS011;21385;50.878;8.050;2022-09-28T06:28:51;6.70;;;3.92;;
35257;SDS011;21385;50.878;8.050;2022-09-28T06:31:16;3.08;;;2.63;;
35257;SDS011;21385;50.878;8.050;2022-09-28T06:33:47;3.35;;;2.85;;
35257;SDS011;21385;50.878;8.050;2022-09-28T06:36:14;7.82;;;2.88;;
35257;SDS011;21385;50.878;8.050;2022-09-28T06:38:40;4.45;;;3.03;;
35257;SDS011;21385;50.878;8.050;2022-09-28T06:41:06;3.85;;;2.55;;
35257;SDS011;21385;50.878;8.050;2022-09-28T06:43:32;3.38;;;3.08;;
35257;SDS011;21385;50.878;8.050;2022-09-28T06:45:59;3.20;;;2.13;;
35257;SDS011;21385;50.878;8.050;2022-09-28T06:48:25;3.47;;;3.17;;
35257;SDS011;21385;50.878;8.050;2022-09-28T06:50:51;3.05;;;2.83;;
35257;SDS011;21385;50.878;8.050;2022-09-28T06:53:16;2.03;;;1.92;;
35257;SDS011;21385;50.878;8.050;2022-09-28T06:55:44;3.53;;;3.20;;
35257;SDS011;21385;50.878;8.050;2022-09-28T06:58:13;3.28;;;2.90;;
35257;SDS011;21385;50.878;8.050;2022-09-28T07:00:41;2.95;;;2.65;;
35257;SDS011;21385;50.878;8.050;2022-09-28T07:03:12;5.45;;;3.90;;
35257;SDS011;21385;50.878;8.050;2022-09-28T07:08:10;3.97;;;2.67;;
35257;SDS011;21385;50.878;8.050;2022-09-28T07:10:39;2.50;;;2.03;;
35257;SDS011;21385;50.878;8.050;2022-09-28T07:13:13;3.03;;;2.67;;
35257;SDS011;21385;50.878;8.050;2022-09-28T07:15:40;2.80;;;2.47;;
35257;SDS011;21385;50.878;8.050;2022-09-28T07:18:07;3.00;;;2.42;;
35257;SDS011;21385;50.878;8.050;2022-09-28T07:20:33;7.25;;;2.45;;
35257;SDS011;21385;50.878;8.050;2022-09-28T07:23:01;2.65;;;2.45;;
35257;SDS011;21385;50.878;8.050;2022-09-28T07:25:28;2.67;;;2.35;;
35257;SDS011;21385;50.878;8.050;2022-09-28T07:27:55;2.97;;;2.50;;
35257;SDS011;21385;50.878;8.050;2022-09-28T07:30:23;3.85;;;2.83;;
35257;SDS011;21385;50.878;8.050;2022-09-28T07:32:50;2.05;;;1.92;;
35257;SDS011;21385;50.878;8.050;2022-09-28T07:35:16;2.90;;;2.63;;
35257;SDS011;21385;50.878;8.050;2022-09-28T07:37:41;2.53;;;1.83;;
35257;SDS011;21385;50.878;8.050;2022-09-28T07:40:07;3.65;;;1.90;;
35257;SDS011;21385;50.878;8.050;2022-09-28T07:42:52;2.55;;;2.30;;
35257;SDS011;21385;50.878;8.050;2022-09-28T07:45:18;2.30;;;2.10;;
35257;SDS011;21385;50.878;8.050;2022-09-28T07:47:55;4.10;;;2.65;;
35257;SDS011;21385;50.878;8.050;2022-09-28T07:50:21;1.80;;;1.70;;
35257;SDS011;21385;50.878;8.050;2022-09-28T07:52:46;4.18;;;2.38;;
35257;SDS011;21385;50.878;8.050;2022-09-28T07:55:13;2.03;;;1.77;;
35257;SDS011;21385;50.878;8.050;2022-09-28T07:57:39;3.88;;;2.42;;
35257;SDS011;21385;50.878;8.050;2022-09-28T08:00:04;4.80;;;2.13;;
35257;SDS011;21385;50.878;8.050;2022-09-28T08:02:32;2.67;;;2.38;;
35257;SDS011;21385;50.878;8.050;2022-09-28T08:04:59;2.70;;;2.30;;
35257;SDS011;21385;50.878;8.050;2022-09-28T08:07:25;3.83;;;2.97;;
35257;SDS011;21385;50.878;8.050;2022-09-28T08:09:51;3.30;;;2.45;;
35257;SDS011;21385;50.878;8.050;2022-09-28T08:12:16;2.53;;;2.33;;
35257;SDS011;21385;50.878;8.050;2022-09-28T08:14:43;4.80;;;2.65;;
35257;SDS011;21385;50.878;8.050;2022-09-28T08:17:10;5.32;;;2.53;;
35257;SDS011;21385;50.878;8.050;2022-09-28T08:19:35;3.45;;;3.15;;
35257;SDS011;21385;50.878;8.050;2022-09-28T08:22:20;4.88;;;3.67;;
35257;SDS011;21385;50.878;8.050;2022-09-28T08:24:46;3.22;;;2.80;;
35257;SDS011;21385;50.878;8.050;2022-09-28T08:27:12;9.35;;;5.20;;
35257;SDS011;21385;50.878;8.050;2022-09-28T08:29:38;7.93;;;4.45;;
35257;SDS011;21385;50.878;8.050;2022-09-28T08:32:05;4.63;;;3.78;;
35257;SDS011;21385;50.878;8.050;2022-09-28T08:34:35;4.55;;;3.28;;
35257;SDS011;21385;50.878;8.050;2022-09-28T08:37:02;3.45;;;2.97;;
35257;SDS011;21385;50.878;8.050;2022-09-28T08:39:28;7.22;;;5.38;;
35257;SDS011;21385;50.878;8.050;2022-09-28T08:44:55;6.60;;;4.20;;
35257;SDS011;21385;50.878;8.050;2022-09-28T08:50:38;17.02;;;9.70;;
35257;SDS011;21385;50.878;8.050;2022-09-28T08:53:18;10.18;;;7.75;;
35257;SDS011;21385;50.878;8.050;2022-09-28T08:55:59;7.45;;;5.68;;
35257;SDS011;21385;50.878;8.050;2022-09-28T08:58:31;7.72;;;4.55;;
35257;SDS011;21385;50.878;8.050;2022-09-28T09:01:01;3.47;;;3.17;;
35257;SDS011;21385;50.878;8.050;2022-09-28T09:03:30;3.75;;;3.45;;
35257;SDS011;21385;50.878;8.050;2022-09-28T09:09:09;4.15;;;3.67;;
35257;SDS011;21385;50.878;8.050;2022-09-28T09:16:42;5.10;;;3.40;;
35257;SDS011;21385;50.878;8.050;2022-09-28T09:22:10;4.30;;;3.63;;
35257;SDS011;21385;50.878;8.050;2022-09-28T09:24:47;4.63;;;2.63;;
35257;SDS011;21385;50.878;8.050;2022-09-28T09:32:23;3.40;;;2.60;;
35257;SDS011;21385;50.878;8.050;2022-09-28T09:35:18;2.50;;;2.00;;
35257;SDS011;21385;50.878;8.050;2022-09-28T09:46:55;5.28;;;2.15;;
35257;SDS011;21385;50.878;8.050;2022-09-28T09:49:37;2.63;;;2.42;;
35257;SDS011;21385;50.878;8.050;2022-09-28T09:52:06;2.50;;;2.20;;
35257;SDS011;21385;50.878;8.050;2022-09-28T09:57:23;1.70;;;1.60;;
35257;SDS011;21385;50.878;8.050;2022-09-28T09:59:54;1.45;;;1.23;;
35257;SDS011;21385;50.878;8.050;2022-09-28T10:02:24;1.38;;;1.27;;
35257;SDS011;21385;50.878;8.050;2022-09-28T10:04:53;1.60;;;1.50;;
35257;SDS011;21385;50.878;8.050;2022-09-28T10:07:24;3.35;;;1.65;;
35257;SDS011;21385;50.878;8.050;2022-09-28T10:09:57;3.05;;;1.65;;
35257;SDS011;21385;50.878;8.050;2022-09-28T10:12:25;2.17;;;1.92;;
35257;SDS011;21385;50.878;8.050;2022-09-28T10:14:52;2.65;;;1.98;;
35257;SDS011;21385;50.878;8.050;2022-09-28T10:17:19;2.95;;;1.60;;
35257;SDS011;21385;50.878;8.050;2022-09-28T10:22:17;3.70;;;1.75;;
35257;SDS011;21385;50.878;8.050;2022-09-28T10:24:47;1.40;;;1.30;;
35257;SDS011;21385;50.878;8.050;2022-09-28T10:27:34;2.28;;;2.08;;
35257;SDS011;21385;50.878;8.050;2022-09-28T10:35:19;2.70;;;1.98;;
35257;SDS011;21385;50.878;8.050;2022-09-28T10:37:47;1.77;;;1.67;;
35257;SDS011;21385;50.878;8.050;2022-09-28T10:45:46;1.55;;;1.30;;
35257;SDS011;21385;50.878;8.050;2022-09-28T10:48:19;1.55;;;1.45;;
35257;SDS011;21385;50.878;8.050;2022-09-28T10:50:56;2.10;;;1.75;;
35257;SDS011;21385;50.878;8.050;2022-09-28T10:53:24;1.73;;;1.35;;
35257;SDS011;21385;50.878;8.050;2022-09-28T10:56:00;1.23;;;1.05;;
35257;SDS011;21385;50.878;8.050;2022-09-28T11:01:01;0.95;;;0.95;;
35257;SDS011;21385;50.878;8.050;2022-09-28T11:03:33;1.25;;;1.15;;
35257;SDS011;21385;50.878;8.050;2022-09-28T11:06:02;4.65;;;0.93;;
35257;SDS011;21385;50.878;8.050;2022-09-28T11:08:38;1.48;;;1.20;;
35257;SDS011;21385;50.878;8.050;2022-09-28T11:11:14;1.63;;;1.38;;
35257;SDS011;21385;50.878;8.050;2022-09-28T11:16:27;2.45;;;1.73;;
35257;SDS011;21385;50.878;8.050;2022-09-28T11:19:05;2.63;;;2.42;;
35257;SDS011;21385;50.878;8.050;2022-09-28T11:21:53;3.65;;;2.13;;
35257;SDS011;21385;50.878;8.050;2022-09-28T11:24:22;4.68;;;3.22;;
35257;SDS011;21385;50.878;8.050;2022-09-28T11:26:51;2.47;;;2.28;;
35257;SDS011;21385;50.878;8.050;2022-09-28T11:29:37;1.10;;;1.00;;
35257;SDS011;21385;50.878;8.050;2022-09-28T11:32:10;2.03;;;1.02;;
35257;SDS011;21385;50.878;8.050;2022-09-28T11:34:41;5.15;;;1.15;;
35257;SDS011;21385;50.878;8.050;2022-09-28T11:42:34;0.70;;;0.70;;
35257;SDS011;21385;50.878;8.050;2022-09-28T11:48:24;1.60;;;1.38;;
35257;SDS011;21385;50.878;8.050;2022-09-28T11:51:04;1.75;;;1.50;;
35257;SDS011;21385;50.878;8.050;2022-09-28T11:58:59;1.70;;;1.20;;
35257;SDS011;21385;50.878;8.050;2022-09-28T12:04:20;4.28;;;1.00;;
35257;SDS011;21385;50.878;8.050;2022-09-28T12:09:51;1.17;;;0.90;;
35257;SDS011;21385;50.878;8.050;2022-09-28T12:12:22;1.27;;;0.80;;
35257;SDS011;21385;50.878;8.050;2022-09-28T12:14:57;0.93;;;0.82;;
35257;SDS011;21385;50.878;8.050;2022-09-28T12:20:31;1.58;;;1.40;;
35257;SDS011;21385;50.878;8.050;2022-09-28T12:25:24;1.52;;;1.35;;
35257;SDS011;21385;50.878;8.050;2022-09-28T12:27:59;3.10;;;2.22;;
35257;SDS011;21385;50.878;8.050;2022-09-28T12:30:29;2.72;;;1.70;;
35257;SDS011;21385;50.878;8.050;2022-09-28T12:33:06;2.15;;;1.17;;
35257;SDS011;21385;50.878;8.050;2022-09-28T12:46:59;2.30;;;1.33;;
35257;SDS011;21385;50.878;8.050;2022-09-28T12:49:43;1.20;;;1.10;;
35257;SDS011;21385;50.878;8.050;2022-09-28T12:52:27;1.48;;;1.20;;
35257;SDS011;21385;50.878;8.050;2022-09-28T12:57:48;1.20;;;1.00;;
35257;SDS011;21385;50.878;8.050;2022-09-28T13:00:23;8.60;;;1.20;;
35257;SDS011;21385;50.878;8.050;2022-09-28T13:10:52;1.73;;;0.90;;
35257;SDS011;21385;50.878;8.050;2022-09-28T13:13:48;0.68;;;0.68;;
35257;SDS011;21385;50.878;8.050;2022-09-28T13:16:23;0.77;;;0.77;;
35257;SDS011;21385;50.878;8.050;2022-09-28T13:21:40;6.78;;;1.20;;
35257;SDS011;21385;50.878;8.050;2022-09-28T13:24:15;2.08;;;1.42;;
35257;SDS011;21385;50.878;8.050;2022-09-28T13:26:49;1.75;;;1.23;;
35257;SDS011;21385;50.878;8.050;2022-09-28T13:29:16;2.20;;;1.48;;
35257;SDS011;21385;50.878;8.050;2022-09-28T13:31:47;2.10;;;1.70;;
35257;SDS011;21385;50.878;8.050;2022-09-28T13:34:20;3.17;;;1.40;;
35257;SDS011;21385;50.878;8.050;2022-09-28T13:47:56;2.53;;;1.83;;
35257;SDS011;21385;50.878;8.050;2022-09-28T13:53:43;9.98;;;1.67;;
35257;SDS011;21385;50.878;8.050;2022-09-28T13:56:43;2.28;;;1.33;;
35257;SDS011;21385;50.878;8.050;2022-09-28T13:59:28;1.15;;;0.93;;
35257;SDS011;21385;50.878;8.050;2022-09-28T14:04:52;1.63;;;1.02;;
35257;SDS011;21385;50.878;8.050;2022-09-28T14:12:51;1.10;;;1.00;;
35257;SDS011;21385;50.878;8.050;2022-09-28T14:15:38;13.18;;;0.75;;
35257;SDS011;21385;50.878;8.050;2022-09-28T14:23:50;2.67;;;1.85;;
35257;SDS011;21385;50.878;8.050;2022-09-28T14:29:22;7.07;;;1.33;;
35257;SDS011;21385;50.878;8.050;2022-09-28T14:31:56;3.22;;;0.95;;
35257;SDS011;21385;50.878;8.050;2022-09-28T14:34:32;1.90;;;0.82;;
35257;SDS011;21385;50.878;8.050;2022-09-28T14:37:31;1.95;;;1.17;;
35257;SDS011;21385;50.878;8.050;2022-09-28T14:40:20;9.80;;;1.88;;
35257;SDS011;21385;50.878;8.050;2022-09-28T14:54:02;0.98;;;0.90;;
35257;SDS011;21385;50.878;8.050;2022-09-28T14:56:32;1.15;;;0.80;;
35257;SDS011;21385;50.878;8.050;2022-09-28T14:59:24;1.83;;;0.88;;
35257;SDS011;21385;50.878;8.050;2022-09-28T15:01:56;0.77;;;0.70;;
35257;SDS011;21385;50.878;8.050;2022-09-28T15:04:32;1.23;;;0.88;;
35257;SDS011;21385;50.878;8.050;2022-09-28T15:07:02;9.52;;;1.20;;
35257;SDS011;21385;50.878;8.050;2022-09-28T15:09:35;1.90;;;1.00;;
35257;SDS011;21385;50.878;8.050;2022-09-28T15:12:09;3.97;;;1.15;;
35257;SDS011;21385;50.878;8.050;2022-09-28T15:14:43;1.75;;;0.90;;
35257;SDS011;21385;50.878;8.050;2022-09-28T15:17:24;4.13;;;2.60;;
35257;SDS011;21385;50.878;8.050;2022-09-28T15:22:50;0.90;;;0.90;;
35257;SDS011;21385;50.878;8.050;2022-09-28T15:27:56;2.80;;;1.30;;
35257;SDS011;21385;50.878;8.050;2022-09-28T15:30:32;1.80;;;1.60;;
35257;SDS011;21385;50.878;8.050;2022-09-28T15:32:59;1.23;;;1.10;;
35257;SDS011;21385;50.878;8.050;2022-09-28T15:35:48;0.93;;;0.90;;
35257;SDS011;21385;50.878;8.050;2022-09-28T15:38:16;0.77;;;0.60;;
35257;SDS011;21385;50.878;8.050;2022-09-28T15:40:45;3.40;;;0.93;;
35257;SDS011;21385;50.878;8.050;2022-09-28T15:43:27;3.35;;;0.63;;
35257;SDS011;21385;50.878;8.050;2022-09-28T15:51:12;1.08;;;1.00;;
35257;SDS011;21385;50.878;8.050;2022-09-28T15:53:41;2.85;;;1.35;;
35257;SDS011;21385;50.878;8.050;2022-09-28T15:56:15;2.10;;;1.73;;
35257;SDS011;21385;50.878;8.050;2022-09-28T15:58:43;1.77;;;1.30;;
35257;SDS011;21385;50.878;8.050;2022-09-28T16:04:39;3.10;;;1.42;;
35257;SDS011;21385;50.878;8.050;2022-09-28T16:14:45;9.55;;;1.85;;
35257;SDS011;21385;50.878;8.050;2022-09-28T16:17:24;3.42;;;2.05;;
35257;SDS011;21385;50.878;8.050;2022-09-28T16:19:56;3.15;;;1.50;;
35257;SDS011;21385;50.878;8.050;2022-09-28T16:22:22;2.78;;;1.35;;
35257;SDS011;21385;50.878;8.050;2022-09-28T16:24:52;2.22;;;1.30;;
35257;SDS011;21385;50.878;8.050;2022-09-28T16:27:25;2.08;;;1.38;;
35257;SDS011;21385;50.878;8.050;2022-09-28T16:30:23;1.58;;;1.10;;
35257;SDS011;21385;50.878;8.050;2022-09-28T16:32:55;3.05;;;1.27;;
35257;SDS011;21385;50.878;8.050;2022-09-28T16:35:26;3.55;;;1.73;;
35257;SDS011;21385;50.878;8.050;2022-09-28T16:38:00;1.00;;;0.93;;
35257;SDS011;21385;50.878;8.050;2022-09-28T16:40:28;2.45;;;1.38;;
35257;SDS011;21385;50.878;8.050;2022-09-28T16:42:57;2.85;;;1.77;;
35257;SDS011;21385;50.878;8.050;2022-09-28T16:45:25;2.75;;;1.55;;
35257;SDS011;21385;50.878;8.050;2022-09-28T16:47:53;7.88;;;1.58;;
35257;SDS011;21385;50.878;8.050;2022-09-28T16:50:27;2.08;;;1.00;;
35257;SDS011;21385;50.878;8.050;2022-09-28T16:53:05;3.65;;;1.00;;
35257;SDS011;21385;50.878;8.050;2022-09-28T16:55:57;2.33;;;1.40;;
35257;SDS011;21385;50.878;8.050;2022-09-28T16:58:24;2.38;;;2.05;;
35257;SDS011;21385;50.878;8.050;2022-09-28T17:00:50;2.50;;;1.48;;
35257;SDS011;21385;50.878;8.050;2022-09-28T17:03:18;1.85;;;1.10;;
35257;SDS011;21385;50.878;8.050;2022-09-28T17:05:44;2.65;;;1.55;;
35257;SDS011;21385;50.878;8.050;2022-09-28T17:08:14;6.00;;;2.20;;
35257;SDS011;21385;50.878;8.050;2022-09-28T17:13:19;6.15;;;4.72;;
35257;SDS011;21385;50.878;8.050;2022-09-28T17:15:53;2.45;;;2.25;;
35257;SDS011;21385;50.878;8.050;2022-09-28T17:18:19;4.43;;;2.90;;
35257;SDS011;21385;50.878;8.050;2022-09-28T17:20:46;7.63;;;1.85;;
35257;SDS011;21385;50.878;8.050;2022-09-28T17:23:14;3.15;;;1.98;;
35257;SDS011;21385;50.878;8.050;2022-09-28T17:25:40;1.88;;;1.30;;
35257;SDS011;21385;50.878;8.050;2022-09-28T17:28:12;3.15;;;1.90;;
35257;SDS011;21385;50.878;8.050;2022-09-28T17:30:45;4.20;;;3.22;;
35257;SDS011;21385;50.878;8.050;2022-09-28T17:33:11;3.50;;;3.00;;
35257;SDS011;21385;50.878;8.050;2022-09-28T17:35:37;3.63;;;2.35;;
35257;SDS011;21385;50.878;8.050;2022-09-28T17:38:13;5.78;;;3.00;;
35257;SDS011;21385;50.878;8.050;2022-09-28T17:40:40;8.98;;;5.07;;
35257;SDS011;21385;50.878;8.050;2022-09-28T17:43:10;6.57;;;2.10;;
35257;SDS011;21385;50.878;8.050;2022-09-28T17:45:36;2.17;;;1.52;;
35257;SDS011;21385;50.878;8.050;2022-09-28T17:48:06;1.50;;;0.55;;
35257;SDS011;21385;50.878;8.050;2022-09-28T17:53:12;0.68;;;0.63;;
35257;SDS011;21385;50.878;8.050;2022-09-28T17:55:38;0.93;;;0.80;;
35257;SDS011;21385;50.878;8.050;2022-09-28T17:58:18;2.83;;;0.98;;
35257;SDS011;21385;50.878;8.050;2022-09-28T18:00:45;3.33;;;1.50;;
35257;SDS011;21385;50.878;8.050;2022-09-28T18:03:19;2.13;;;1.38;;
35257;SDS011;21385;50.878;8.050;2022-09-28T18:05:47;1.08;;;0.80;;
35257;SDS011;21385;50.878;8.050;2022-09-28T18:08:18;1.63;;;1.52;;
35257;SDS011;21385;50.878;8.050;2022-09-28T18:10:45;0.70;;;0.70;;
35257;SDS011;21385;50.878;8.050;2022-09-28T18:13:13;0.73;;;0.60;;
35257;SDS011;21385;50.878;8.050;2022-09-28T18:15:39;3.95;;;1.13;;
35257;SDS011;21385;50.878;8.050;2022-09-28T18:18:05;3.65;;;1.40;;
35257;SDS011;21385;50.878;8.050;2022-09-28T18:20:33;1.73;;;1.30;;
35257;SDS011;21385;50.878;8.050;2022-09-28T18:22:59;1.83;;;1.50;;
35257;SDS011;21385;50.878;8.050;2022-09-28T18:25:25;1.63;;;1.35;;
35257;SDS011;21385;50.878;8.050;2022-09-28T18:27:53;1.13;;;0.90;;
35257;SDS011;21385;50.878;8.050;2022-09-28T18:30:21;2.63;;;1.17;;
35257;SDS011;21385;50.878;8.050;2022-09-28T18:32:51;1.38;;;1.27;;
35257;SDS011;21385;50.878;8.050;2022-09-28T18:35:16;4.25;;;1.35;;
35257;SDS011;21385;50.878;8.050;2022-09-28T18:37:45;2.78;;;2.25;;